sensor_id;sensor_type;location;lat;lon;timestamp;P1;durP1;ratioP1;P2;durP2;ratioP2
32864;SDS011;19219;44.500;11.188;2023-03-23T00:01:53;15.60;;;9.20;;
32864;SDS011;19219;44.500;11.188;2023-03-23T00:04:18;14.77;;;9.52;;
32864;SDS011;19219;44.500;11.188;2023-03-23T00:06:45;12.23;;;8.95;;
32864;SDS011;19219;44.500;11.188;2023-03-23T00:09:14;15.68;;;10.52;;
32864;SDS011;19219;44.500;11.188;2023-03-23T00:11:42;10.82;;;8.95;;
32864;SDS011;19219;44.500;11.188;2023-03-23T00:14:08;55.00;;;30.23;;
32864;SDS011;19219;44.500;11.188;2023-03-23T00:16:38;15.30;;;10.50;;
32864;SDS011;19219;44.500;11.188;2023-03-23T00:19:07;10.13;;;8.35;;
32864;SDS011;19219;44.500;11.188;2023-03-23T00:21:35;11.32;;;8.43;;
32864;SDS011;19219;44.500;11.188;2023-03-23T00:24:08;11.40;;;8.98;;
32864;SDS011;19219;44.500;11.188;2023-03-23T00:26:36;13.20;;;8.52;;
32864;SDS011;19219;44.500;11.188;2023-03-23T00:29:06;10.67;;;8.10;;
32864;SDS011;19219;44.500;11.188;2023-03-23T00:31:34;14.80;;;9.53;;
32864;SDS011;19219;44.500;11.188;2023-03-23T00:34:00;13.52;;;9.27;;
32864;SDS011;19219;44.500;11.188;2023-03-23T00:36:29;12.95;;;9.10;;
32864;SDS011;19219;44.500;11.188;2023-03-23T00:38:56;14.48;;;8.88;;
32864;SDS011;19219;44.500;11.188;2023-03-23T00:41:26;14.35;;;9.13;;
32864;SDS011;19219;44.500;11.188;2023-03-23T00:43:53;11.77;;;8.55;;
32864;SDS011;19219;44.500;11.188;2023-03-23T00:46:25;15.98;;;8.93;;
32864;SDS011;19219;44.500;11.188;2023-03-23T00:48:53;12.73;;;8.77;;
32864;SDS011;19219;44.500;11.188;2023-03-23T00:51:19;10.68;;;7.57;;
32864;SDS011;19219;44.500;11.188;2023-03-23T00:53:46;11.48;;;7.72;;
32864;SDS011;19219;44.500;11.188;2023-03-23T00:56:12;14.30;;;8.60;;
32864;SDS011;19219;44.500;11.188;2023-03-23T00:58:38;11.00;;;8.07;;
32864;SDS011;19219;44.500;11.188;2023-03-23T01:01:05;10.70;;;8.00;;
32864;SDS011;19219;44.500;11.188;2023-03-23T01:03:31;12.52;;;9.00;;
32864;SDS011;19219;44.500;11.188;2023-03-23T01:06:03;12.68;;;8.27;;
32864;SDS011;19219;44.500;11.188;2023-03-23T01:08:38;15.27;;;8.40;;
32864;SDS011;19219;44.500;11.188;2023-03-23T01:11:10;10.48;;;7.88;;
32864;SDS011;19219;44.500;11.188;2023-03-23T01:13:43;10.48;;;7.93;;
32864;SDS011;19219;44.500;11.188;2023-03-23T01:16:09;10.60;;;8.07;;
32864;SDS011;19219;44.500;11.188;2023-03-23T01:18:36;12.25;;;8.43;;
32864;SDS011;19219;44.500;11.188;2023-03-23T01:21:09;11.25;;;7.78;;
32864;SDS011;19219;44.500;11.188;2023-03-23T01:23:36;12.98;;;7.60;;
32864;SDS011;19219;44.500;11.188;2023-03-23T01:26:07;10.75;;;8.00;;
32864;SDS011;19219;44.500;11.188;2023-03-23T01:28:40;11.68;;;8.10;;
32864;SDS011;19219;44.500;11.188;2023-03-23T01:31:09;16.85;;;9.65;;
32864;SDS011;19219;44.500;11.188;2023-03-23T01:33:39;13.05;;;7.60;;
32864;SDS011;19219;44.500;11.188;2023-03-23T01:36:07;10.48;;;8.25;;
32864;SDS011;19219;44.500;11.188;2023-03-23T01:38:35;13.60;;;8.50;;
32864;SDS011;19219;44.500;11.188;2023-03-23T01:41:01;10.05;;;8.27;;
32864;SDS011;19219;44.500;11.188;2023-03-23T01:43:28;19.02;;;13.20;;
32864;SDS011;19219;44.500;11.188;2023-03-23T01:45:54;40.30;;;18.27;;
32864;SDS011;19219;44.500;11.188;2023-03-23T01:48:21;20.83;;;12.68;;
32864;SDS011;19219;44.500;11.188;2023-03-23T01:53:30;17.27;;;8.55;;
32864;SDS011;19219;44.500;11.188;2023-03-23T01:56:19;11.98;;;8.90;;
32864;SDS011;19219;44.500;11.188;2023-03-23T01:58:49;16.77;;;9.75;;
32864;SDS011;19219;44.500;11.188;2023-03-23T02:01:16;18.90;;;10.55;;
32864;SDS011;19219;44.500;11.188;2023-03-23T02:03:42;18.02;;;11.27;;
32864;SDS011;19219;44.500;11.188;2023-03-23T02:06:10;15.90;;;10.90;;
32864;SDS011;19219;44.500;11.188;2023-03-23T02:08:37;16.23;;;10.05;;
32864;SDS011;19219;44.500;11.188;2023-03-23T02:11:11;16.00;;;10.82;;
32864;SDS011;19219;44.500;11.188;2023-03-23T02:13:44;14.43;;;8.93;;
32864;SDS011;19219;44.500;11.188;2023-03-23T02:27:01;13.98;;;8.90;;
32864;SDS011;19219;44.500;11.188;2023-03-23T02:29:46;12.82;;;8.30;;
32864;SDS011;19219;44.500;11.188;2023-03-23T02:35:10;12.23;;;9.80;;
32864;SDS011;19219;44.500;11.188;2023-03-23T02:37:49;14.50;;;9.77;;
32864;SDS011;19219;44.500;11.188;2023-03-23T02:40:20;15.73;;;8.98;;
32864;SDS011;19219;44.500;11.188;2023-03-23T02:42:53;17.73;;;9.57;;
32864;SDS011;19219;44.500;11.188;2023-03-23T02:45:20;15.02;;;8.95;;
32864;SDS011;19219;44.500;11.188;2023-03-23T02:47:50;13.45;;;9.32;;
32864;SDS011;19219;44.500;11.188;2023-03-23T02:50:18;19.38;;;9.40;;
32864;SDS011;19219;44.500;11.188;2023-03-23T02:52:46;11.40;;;8.70;;
32864;SDS011;19219;44.500;11.188;2023-03-23T02:55:15;13.82;;;9.52;;
32864;SDS011;19219;44.500;11.188;2023-03-23T02:57:42;16.50;;;9.30;;
32864;SDS011;19219;44.500;11.188;2023-03-23T03:00:14;12.57;;;8.75;;
32864;SDS011;19219;44.500;11.188;2023-03-23T03:02:42;16.33;;;9.70;;
32864;SDS011;19219;44.500;11.188;2023-03-23T03:10:33;16.17;;;8.18;;
32864;SDS011;19219;44.500;11.188;2023-03-23T03:16:02;11.15;;;8.18;;
32864;SDS011;19219;44.500;11.188;2023-03-23T03:21:04;11.88;;;8.43;;
32864;SDS011;19219;44.500;11.188;2023-03-23T03:23:33;17.42;;;10.18;;
32864;SDS011;19219;44.500;11.188;2023-03-23T03:26:00;19.42;;;9.13;;
32864;SDS011;19219;44.500;11.188;2023-03-23T03:28:30;14.23;;;9.13;;
32864;SDS011;19219;44.500;11.188;2023-03-23T03:30:57;13.85;;;8.85;;
32864;SDS011;19219;44.500;11.188;2023-03-23T03:33:25;15.75;;;8.75;;
32864;SDS011;19219;44.500;11.188;2023-03-23T03:35:56;10.48;;;7.78;;
32864;SDS011;19219;44.500;11.188;2023-03-23T03:38:24;12.05;;;7.85;;
32864;SDS011;19219;44.500;11.188;2023-03-23T03:40:51;13.07;;;8.25;;
32864;SDS011;19219;44.500;11.188;2023-03-23T03:43:20;12.57;;;8.20;;
32864;SDS011;19219;44.500;11.188;2023-03-23T03:45:50;17.90;;;9.50;;
32864;SDS011;19219;44.500;11.188;2023-03-23T03:48:18;12.98;;;8.95;;
32864;SDS011;19219;44.500;11.188;2023-03-23T03:50:46;13.80;;;9.05;;
32864;SDS011;19219;44.500;11.188;2023-03-23T03:53:12;11.55;;;8.40;;
32864;SDS011;19219;44.500;11.188;2023-03-23T03:55:39;16.40;;;10.27;;
32864;SDS011;19219;44.500;11.188;2023-03-23T03:58:14;11.70;;;8.50;;
32864;SDS011;19219;44.500;11.188;2023-03-23T04:00:39;13.40;;;8.30;;
32864;SDS011;19219;44.500;11.188;2023-03-23T04:03:14;12.30;;;8.15;;
32864;SDS011;19219;44.500;11.188;2023-03-23T04:05:41;11.27;;;8.32;;
32864;SDS011;19219;44.500;11.188;2023-03-23T04:08:10;12.50;;;8.80;;
32864;SDS011;19219;44.500;11.188;2023-03-23T04:10:37;14.50;;;8.98;;
32864;SDS011;19219;44.500;11.188;2023-03-23T04:13:03;12.82;;;8.85;;
32864;SDS011;19219;44.500;11.188;2023-03-23T04:15:29;12.75;;;7.85;;
32864;SDS011;19219;44.500;11.188;2023-03-23T04:17:57;15.18;;;9.75;;
32864;SDS011;19219;44.500;11.188;2023-03-23T04:20:24;13.50;;;8.90;;
32864;SDS011;19219;44.500;11.188;2023-03-23T04:22:51;14.50;;;10.35;;
32864;SDS011;19219;44.500;11.188;2023-03-23T04:25:19;14.30;;;9.40;;
32864;SDS011;19219;44.500;11.188;2023-03-23T04:27:49;17.30;;;11.35;;
32864;SDS011;19219;44.500;11.188;2023-03-23T04:30:23;13.30;;;10.63;;
32864;SDS011;19219;44.500;11.188;2023-03-23T04:32:52;19.67;;;11.85;;
32864;SDS011;19219;44.500;11.188;2023-03-23T04:35:23;16.85;;;11.02;;
32864;SDS011;19219;44.500;11.188;2023-03-23T04:37:51;16.40;;;10.50;;
32864;SDS011;19219;44.500;11.188;2023-03-23T04:40:18;15.45;;;10.57;;
32864;SDS011;19219;44.500;11.188;2023-03-23T04:42:45;18.13;;;11.07;;
32864;SDS011;19219;44.500;11.188;2023-03-23T04:45:15;15.05;;;10.85;;
32864;SDS011;19219;44.500;11.188;2023-03-23T04:47:51;19.83;;;11.50;;
32864;SDS011;19219;44.500;11.188;2023-03-23T04:50:22;15.98;;;9.93;;
32864;SDS011;19219;44.500;11.188;2023-03-23T04:52:51;14.60;;;10.63;;
32864;SDS011;19219;44.500;11.188;2023-03-23T04:55:19;16.63;;;10.80;;
32864;SDS011;19219;44.500;11.188;2023-03-23T04:57:46;16.20;;;11.63;;
32864;SDS011;19219;44.500;11.188;2023-03-23T05:00:12;18.20;;;11.27;;
32864;SDS011;19219;44.500;11.188;2023-03-23T05:02:41;15.30;;;10.55;;
32864;SDS011;19219;44.500;11.188;2023-03-23T05:05:18;16.70;;;11.98;;
32864;SDS011;19219;44.500;11.188;2023-03-23T05:07:45;17.30;;;9.98;;
32864;SDS011;19219;44.500;11.188;2023-03-23T05:10:11;15.95;;;10.40;;
32864;SDS011;19219;44.500;11.188;2023-03-23T05:12:38;15.13;;;11.30;;
32864;SDS011;19219;44.500;11.188;2023-03-23T05:15:04;17.38;;;11.20;;
32864;SDS011;19219;44.500;11.188;2023-03-23T05:17:31;20.33;;;12.18;;
32864;SDS011;19219;44.500;11.188;2023-03-23T05:19:58;15.88;;;11.60;;
32864;SDS011;19219;44.500;11.188;2023-03-23T05:22:27;16.15;;;10.57;;
32864;SDS011;19219;44.500;11.188;2023-03-23T05:24:57;14.25;;;10.02;;
32864;SDS011;19219;44.500;11.188;2023-03-23T05:27:23;17.52;;;10.50;;
32864;SDS011;19219;44.500;11.188;2023-03-23T05:29:55;25.33;;;14.48;;
32864;SDS011;19219;44.500;11.188;2023-03-23T05:32:23;24.52;;;14.32;;
32864;SDS011;19219;44.500;11.188;2023-03-23T05:34:55;17.25;;;12.18;;
32864;SDS011;19219;44.500;11.188;2023-03-23T05:37:22;14.65;;;11.13;;
32864;SDS011;19219;44.500;11.188;2023-03-23T05:39:48;18.35;;;12.07;;
32864;SDS011;19219;44.500;11.188;2023-03-23T05:42:14;15.95;;;11.15;;
32864;SDS011;19219;44.500;11.188;2023-03-23T05:44:39;14.93;;;10.23;;
32864;SDS011;19219;44.500;11.188;2023-03-23T05:47:05;14.13;;;10.30;;
32864;SDS011;19219;44.500;11.188;2023-03-23T05:49:30;19.38;;;10.82;;
32864;SDS011;19219;44.500;11.188;2023-03-23T05:51:56;14.95;;;10.23;;
32864;SDS011;19219;44.500;11.188;2023-03-23T05:54:22;17.52;;;10.40;;
32864;SDS011;19219;44.500;11.188;2023-03-23T05:56:48;16.45;;;10.00;;
32864;SDS011;19219;44.500;11.188;2023-03-23T05:59:14;17.85;;;10.82;;
32864;SDS011;19219;44.500;11.188;2023-03-23T06:01:40;13.35;;;10.95;;
32864;SDS011;19219;44.500;11.188;2023-03-23T06:04:05;16.17;;;10.10;;
32864;SDS011;19219;44.500;11.188;2023-03-23T06:06:31;18.67;;;11.30;;
32864;SDS011;19219;44.500;11.188;2023-03-23T06:08:57;16.00;;;10.00;;
32864;SDS011;19219;44.500;11.188;2023-03-23T06:11:23;14.98;;;9.52;;
32864;SDS011;19219;44.500;11.188;2023-03-23T06:13:50;12.77;;;8.40;;
32864;SDS011;19219;44.500;11.188;2023-03-23T06:16:17;15.05;;;10.52;;
32864;SDS011;19219;44.500;11.188;2023-03-23T06:18:43;11.43;;;9.35;;
32864;SDS011;19219;44.500;11.188;2023-03-23T06:21:10;13.75;;;9.98;;
32864;SDS011;19219;44.500;11.188;2023-03-23T06:23:36;17.45;;;9.63;;
32864;SDS011;19219;44.500;11.188;2023-03-23T06:26:04;12.70;;;8.57;;
32864;SDS011;19219;44.500;11.188;2023-03-23T06:28:31;11.85;;;8.55;;
32864;SDS011;19219;44.500;11.188;2023-03-23T06:30:59;16.02;;;8.13;;
32864;SDS011;19219;44.500;11.188;2023-03-23T06:33:26;10.55;;;7.95;;
32864;SDS011;19219;44.500;11.188;2023-03-23T06:35:52;11.68;;;7.93;;
32864;SDS011;19219;44.500;11.188;2023-03-23T06:38:17;11.10;;;7.93;;
32864;SDS011;19219;44.500;11.188;2023-03-23T06:40:43;10.52;;;8.20;;
32864;SDS011;19219;44.500;11.188;2023-03-23T06:43:12;9.65;;;7.40;;
32864;SDS011;19219;44.500;11.188;2023-03-23T06:45:39;11.27;;;7.07;;
32864;SDS011;19219;44.500;11.188;2023-03-23T06:48:05;9.35;;;6.03;;
32864;SDS011;19219;44.500;11.188;2023-03-23T06:50:32;73.40;;;42.45;;
32864;SDS011;19219;44.500;11.188;2023-03-23T06:52:57;10.48;;;6.90;;
32864;SDS011;19219;44.500;11.188;2023-03-23T06:55:25;7.15;;;6.18;;
32864;SDS011;19219;44.500;11.188;2023-03-23T06:57:50;8.15;;;4.63;;
32864;SDS011;19219;44.500;11.188;2023-03-23T07:00:16;10.85;;;4.88;;
32864;SDS011;19219;44.500;11.188;2023-03-23T07:02:42;12.02;;;4.55;;
32864;SDS011;19219;44.500;11.188;2023-03-23T07:05:09;5.38;;;4.88;;
32864;SDS011;19219;44.500;11.188;2023-03-23T07:07:36;7.18;;;4.68;;
32864;SDS011;19219;44.500;11.188;2023-03-23T07:10:03;6.57;;;4.68;;
32864;SDS011;19219;44.500;11.188;2023-03-23T07:12:30;5.38;;;4.28;;
32864;SDS011;19219;44.500;11.188;2023-03-23T07:14:56;6.88;;;3.97;;
32864;SDS011;19219;44.500;11.188;2023-03-23T07:17:23;7.65;;;3.85;;
32864;SDS011;19219;44.500;11.188;2023-03-23T07:19:49;5.72;;;4.20;;
32864;SDS011;19219;44.500;11.188;2023-03-23T07:22:15;5.15;;;4.55;;
32864;SDS011;19219;44.500;11.188;2023-03-23T07:24:41;7.15;;;4.13;;
32864;SDS011;19219;44.500;11.188;2023-03-23T07:27:07;5.55;;;4.60;;
32864;SDS011;19219;44.500;11.188;2023-03-23T07:29:34;7.82;;;5.60;;
32864;SDS011;19219;44.500;11.188;2023-03-23T07:32:03;5.47;;;4.47;;
32864;SDS011;19219;44.500;11.188;2023-03-23T07:34:30;5.95;;;4.32;;
32864;SDS011;19219;44.500;11.188;2023-03-23T07:36:56;6.55;;;3.85;;
32864;SDS011;19219;44.500;11.188;2023-03-23T07:39:22;8.95;;;4.57;;
32864;SDS011;19219;44.500;11.188;2023-03-23T07:41:49;6.18;;;3.90;;
32864;SDS011;19219;44.500;11.188;2023-03-23T07:44:15;6.13;;;4.25;;
32864;SDS011;19219;44.500;11.188;2023-03-23T07:46:41;6.90;;;4.65;;
32864;SDS011;19219;44.500;11.188;2023-03-23T07:49:08;7.82;;;4.78;;
32864;SDS011;19219;44.500;11.188;2023-03-23T07:51:34;8.77;;;4.90;;
32864;SDS011;19219;44.500;11.188;2023-03-23T07:54:00;6.47;;;4.68;;
32864;SDS011;19219;44.500;11.188;2023-03-23T07:56:28;8.32;;;4.60;;
32864;SDS011;19219;44.500;11.188;2023-03-23T07:58:54;7.28;;;4.68;;
32864;SDS011;19219;44.500;11.188;2023-03-23T08:01:19;7.88;;;5.20;;
32864;SDS011;19219;44.500;11.188;2023-03-23T08:03:45;8.68;;;6.03;;
32864;SDS011;19219;44.500;11.188;2023-03-23T08:06:12;8.63;;;5.53;;
32864;SDS011;19219;44.500;11.188;2023-03-23T08:08:38;10.95;;;5.97;;
32864;SDS011;19219;44.500;11.188;2023-03-23T08:11:05;7.93;;;5.38;;
32864;SDS011;19219;44.500;11.188;2023-03-23T08:13:31;8.65;;;5.57;;
32864;SDS011;19219;44.500;11.188;2023-03-23T08:15:58;7.53;;;5.45;;
32864;SDS011;19219;44.500;11.188;2023-03-23T08:18:25;8.80;;;5.55;;
32864;SDS011;19219;44.500;11.188;2023-03-23T08:20:51;9.35;;;5.15;;
32864;SDS011;19219;44.500;11.188;2023-03-23T08:23:18;7.22;;;5.38;;
32864;SDS011;19219;44.500;11.188;2023-03-23T08:25:44;15.93;;;7.97;;
32864;SDS011;19219;44.500;11.188;2023-03-23T08:28:11;17.17;;;8.80;;
32864;SDS011;19219;44.500;11.188;2023-03-23T08:30:39;13.55;;;8.20;;
32864;SDS011;19219;44.500;11.188;2023-03-23T08:33:05;14.60;;;7.57;;
32864;SDS011;19219;44.500;11.188;2023-03-23T08:35:32;17.13;;;8.85;;
32864;SDS011;19219;44.500;11.188;2023-03-23T08:37:58;16.33;;;8.35;;
32864;SDS011;19219;44.500;11.188;2023-03-23T08:40:24;13.55;;;7.60;;
32864;SDS011;19219;44.500;11.188;2023-03-23T08:42:50;13.75;;;7.75;;
32864;SDS011;19219;44.500;11.188;2023-03-23T08:45:18;21.60;;;11.25;;
32864;SDS011;19219;44.500;11.188;2023-03-23T08:47:45;19.38;;;10.13;;
32864;SDS011;19219;44.500;11.188;2023-03-23T08:50:16;19.83;;;9.98;;
32864;SDS011;19219;44.500;11.188;2023-03-23T08:52:43;19.90;;;9.75;;
32864;SDS011;19219;44.500;11.188;2023-03-23T08:55:08;19.38;;;9.70;;
32864;SDS011;19219;44.500;11.188;2023-03-23T08:57:35;19.50;;;9.88;;
32864;SDS011;19219;44.500;11.188;2023-03-23T09:00:02;16.15;;;9.82;;
32864;SDS011;19219;44.500;11.188;2023-03-23T09:02:41;18.90;;;9.88;;
32864;SDS011;19219;44.500;11.188;2023-03-23T09:05:09;17.60;;;10.68;;
32864;SDS011;19219;44.500;11.188;2023-03-23T09:07:37;20.75;;;10.73;;
32864;SDS011;19219;44.500;11.188;2023-03-23T09:10:03;16.75;;;9.23;;
32864;SDS011;19219;44.500;11.188;2023-03-23T09:12:29;18.73;;;9.90;;
32864;SDS011;19219;44.500;11.188;2023-03-23T09:14:55;17.00;;;8.45;;
32864;SDS011;19219;44.500;11.188;2023-03-23T09:17:21;15.82;;;9.23;;
32864;SDS011;19219;44.500;11.188;2023-03-23T09:19:47;16.20;;;8.68;;
32864;SDS011;19219;44.500;11.188;2023-03-23T09:22:14;23.88;;;12.98;;
32864;SDS011;19219;44.500;11.188;2023-03-23T09:24:44;21.90;;;12.98;;
32864;SDS011;19219;44.500;11.188;2023-03-23T09:27:11;15.70;;;9.18;;
32864;SDS011;19219;44.500;11.188;2023-03-23T09:29:37;18.15;;;8.38;;
32864;SDS011;19219;44.500;11.188;2023-03-23T09:32:03;18.33;;;8.55;;
32864;SDS011;19219;44.500;11.188;2023-03-23T09:34:29;17.27;;;8.70;;
32864;SDS011;19219;44.500;11.188;2023-03-23T09:36:54;15.43;;;9.07;;
32864;SDS011;19219;44.500;11.188;2023-03-23T09:39:20;18.33;;;9.50;;
32864;SDS011;19219;44.500;11.188;2023-03-23T09:45:09;18.05;;;9.77;;
32864;SDS011;19219;44.500;11.188;2023-03-23T09:50:18;21.25;;;9.75;;
32864;SDS011;19219;44.500;11.188;2023-03-23T09:55:24;22.33;;;9.50;;
32864;SDS011;19219;44.500;11.188;2023-03-23T10:00:57;18.77;;;8.55;;
32864;SDS011;19219;44.500;11.188;2023-03-23T10:03:46;16.83;;;8.40;;
32864;SDS011;19219;44.500;11.188;2023-03-23T10:06:13;18.45;;;8.75;;
32864;SDS011;19219;44.500;11.188;2023-03-23T10:08:47;16.08;;;8.07;;
32864;SDS011;19219;44.500;11.188;2023-03-23T10:14:33;16.35;;;8.57;;
32864;SDS011;19219;44.500;11.188;2023-03-23T10:17:31;15.98;;;7.30;;
32864;SDS011;19219;44.500;11.188;2023-03-23T10:25:46;19.15;;;8.63;;
32864;SDS011;19219;44.500;11.188;2023-03-23T10:28:42;14.82;;;9.00;;
32864;SDS011;19219;44.500;11.188;2023-03-23T10:31:12;16.95;;;9.02;;
32864;SDS011;19219;44.500;11.188;2023-03-23T10:33:47;18.98;;;9.85;;
32864;SDS011;19219;44.500;11.188;2023-03-23T10:36:20;15.95;;;8.05;;
32864;SDS011;19219;44.500;11.188;2023-03-23T10:38:57;15.93;;;9.25;;
32864;SDS011;19219;44.500;11.188;2023-03-23T10:41:43;16.67;;;8.50;;
32864;SDS011;19219;44.500;11.188;2023-03-23T10:44:21;12.57;;;7.90;;
32864;SDS011;19219;44.500;11.188;2023-03-23T10:46:56;16.50;;;8.45;;
32864;SDS011;19219;44.500;11.188;2023-03-23T10:49:37;18.50;;;9.18;;
32864;SDS011;19219;44.500;11.188;2023-03-23T10:57:29;16.42;;;8.93;;
32864;SDS011;19219;44.500;11.188;2023-03-23T11:00:00;20.73;;;9.98;;
32864;SDS011;19219;44.500;11.188;2023-03-23T11:02:30;17.40;;;8.68;;
32864;SDS011;19219;44.500;11.188;2023-03-23T11:05:01;14.27;;;8.52;;
32864;SDS011;19219;44.500;11.188;2023-03-23T11:07:31;16.73;;;7.65;;
32864;SDS011;19219;44.500;11.188;2023-03-23T11:10:05;16.53;;;8.60;;
32864;SDS011;19219;44.500;11.188;2023-03-23T11:12:43;17.63;;;8.95;;
32864;SDS011;19219;44.500;11.188;2023-03-23T11:15:17;19.50;;;8.70;;
32864;SDS011;19219;44.500;11.188;2023-03-23T11:17:57;27.13;;;8.20;;
32864;SDS011;19219;44.500;11.188;2023-03-23T11:20:26;16.10;;;7.47;;
32864;SDS011;19219;44.500;11.188;2023-03-23T11:22:54;18.67;;;8.18;;
32864;SDS011;19219;44.500;11.188;2023-03-23T11:25:21;15.45;;;8.38;;
32864;SDS011;19219;44.500;11.188;2023-03-23T11:27:47;17.20;;;8.30;;
32864;SDS011;19219;44.500;11.188;2023-03-23T11:30:19;15.95;;;8.02;;
32864;SDS011;19219;44.500;11.188;2023-03-23T11:32:49;18.17;;;9.15;;
32864;SDS011;19219;44.500;11.188;2023-03-23T11:35:19;17.50;;;7.88;;
32864;SDS011;19219;44.500;11.188;2023-03-23T11:37:49;19.85;;;7.57;;
32864;SDS011;19219;44.500;11.188;2023-03-23T11:40:24;20.10;;;9.27;;
32864;SDS011;19219;44.500;11.188;2023-03-23T11:50:51;16.58;;;9.25;;
32864;SDS011;19219;44.500;11.188;2023-03-23T11:53:22;16.20;;;10.15;;
32864;SDS011;19219;44.500;11.188;2023-03-23T11:58:40;20.30;;;11.13;;
32864;SDS011;19219;44.500;11.188;2023-03-23T12:01:11;27.58;;;11.60;;
32864;SDS011;19219;44.500;11.188;2023-03-23T12:09:25;21.55;;;10.00;;
32864;SDS011;19219;44.500;11.188;2023-03-23T12:14:59;35.28;;;12.05;;
32864;SDS011;19219;44.500;11.188;2023-03-23T12:23:42;24.73;;;12.02;;
32864;SDS011;19219;44.500;11.188;2023-03-23T12:26:14;22.67;;;11.68;;
32864;SDS011;19219;44.500;11.188;2023-03-23T12:36:29;21.45;;;10.95;;
32864;SDS011;19219;44.500;11.188;2023-03-23T12:44:47;23.10;;;12.60;;
32864;SDS011;19219;44.500;11.188;2023-03-23T12:50:05;24.90;;;11.93;;
32864;SDS011;19219;44.500;11.188;2023-03-23T12:52:36;23.08;;;12.52;;
32864;SDS011;19219;44.500;11.188;2023-03-23T12:55:23;23.23;;;11.73;;
32864;SDS011;19219;44.500;11.188;2023-03-23T12:58:15;22.60;;;13.30;;
32864;SDS011;19219;44.500;11.188;2023-03-23T13:00:56;24.83;;;13.48;;
32864;SDS011;19219;44.500;11.188;2023-03-23T13:03:31;26.48;;;15.82;;
32864;SDS011;19219;44.500;11.188;2023-03-23T13:06:15;26.90;;;14.65;;
32864;SDS011;19219;44.500;11.188;2023-03-23T13:11:28;33.70;;;14.73;;
32864;SDS011;19219;44.500;11.188;2023-03-23T13:14:16;26.58;;;14.23;;
32864;SDS011;19219;44.500;11.188;2023-03-23T13:23:23;26.25;;;13.65;;
32864;SDS011;19219;44.500;11.188;2023-03-23T13:28:23;29.90;;;15.52;;
32864;SDS011;19219;44.500;11.188;2023-03-23T13:31:12;29.77;;;15.57;;
32864;SDS011;19219;44.500;11.188;2023-03-23T13:33:45;27.58;;;14.82;;
32864;SDS011;19219;44.500;11.188;2023-03-23T13:36:14;27.98;;;14.13;;
32864;SDS011;19219;44.500;11.188;2023-03-23T13:38:46;30.70;;;16.00;;
32864;SDS011;19219;44.500;11.188;2023-03-23T13:41:14;31.38;;;15.85;;
32864;SDS011;19219;44.500;11.188;2023-03-23T13:43:43;33.20;;;16.23;;
32864;SDS011;19219;44.500;11.188;2023-03-23T13:48:45;25.38;;;13.93;;
32864;SDS011;19219;44.500;11.188;2023-03-23T13:54:30;27.33;;;15.38;;
32864;SDS011;19219;44.500;11.188;2023-03-23T13:59:58;56.63;;;29.95;;
32864;SDS011;19219;44.500;11.188;2023-03-23T14:02:34;35.60;;;18.13;;
32864;SDS011;19219;44.500;11.188;2023-03-23T14:07:55;35.47;;;18.20;;
32864;SDS011;19219;44.500;11.188;2023-03-23T14:13:24;36.83;;;21.10;;
32864;SDS011;19219;44.500;11.188;2023-03-23T14:16:13;39.58;;;21.92;;
32864;SDS011;19219;44.500;11.188;2023-03-23T14:18:40;36.55;;;19.95;;
32864;SDS011;19219;44.500;11.188;2023-03-23T14:21:17;42.05;;;20.55;;
32864;SDS011;19219;44.500;11.188;2023-03-23T14:23:47;38.05;;;20.10;;
32864;SDS011;19219;44.500;11.188;2023-03-23T14:26:16;43.22;;;21.80;;
32864;SDS011;19219;44.500;11.188;2023-03-23T14:28:45;42.25;;;22.80;;
32864;SDS011;19219;44.500;11.188;2023-03-23T14:31:22;38.22;;;21.08;;
32864;SDS011;19219;44.500;11.188;2023-03-23T14:33:50;34.88;;;20.80;;
32864;SDS011;19219;44.500;11.188;2023-03-23T14:36:21;38.88;;;20.60;;
32864;SDS011;19219;44.500;11.188;2023-03-23T14:38:55;50.83;;;24.88;;
32864;SDS011;19219;44.500;11.188;2023-03-23T14:41:29;34.40;;;18.00;;
32864;SDS011;19219;44.500;11.188;2023-03-23T14:43:59;29.08;;;17.55;;
32864;SDS011;19219;44.500;11.188;2023-03-23T14:46:29;38.53;;;18.27;;
32864;SDS011;19219;44.500;11.188;2023-03-23T14:48:56;40.10;;;20.48;;
32864;SDS011;19219;44.500;11.188;2023-03-23T14:51:25;42.05;;;19.30;;
32864;SDS011;19219;44.500;11.188;2023-03-23T14:53:52;36.67;;;18.60;;
32864;SDS011;19219;44.500;11.188;2023-03-23T14:56:19;38.40;;;19.35;;
32864;SDS011;19219;44.500;11.188;2023-03-23T14:58:51;39.63;;;20.63;;
32864;SDS011;19219;44.500;11.188;2023-03-23T15:01:24;42.13;;;19.40;;
32864;SDS011;19219;44.500;11.188;2023-03-23T15:04:04;36.15;;;19.85;;
32864;SDS011;19219;44.500;11.188;2023-03-23T15:06:36;40.38;;;21.25;;
32864;SDS011;19219;44.500;11.188;2023-03-23T15:09:09;40.63;;;20.02;;
32864;SDS011;19219;44.500;11.188;2023-03-23T15:11:39;40.75;;;19.02;;
32864;SDS011;19219;44.500;11.188;2023-03-23T15:14:21;36.25;;;19.67;;
32864;SDS011;19219;44.500;11.188;2023-03-23T15:17:10;42.45;;;21.67;;
32864;SDS011;19219;44.500;11.188;2023-03-23T15:19:58;39.70;;;19.10;;
32864;SDS011;19219;44.500;11.188;2023-03-23T15:22:34;40.47;;;19.45;;
32864;SDS011;19219;44.500;11.188;2023-03-23T15:27:42;42.28;;;19.08;;
32864;SDS011;19219;44.500;11.188;2023-03-23T15:32:49;40.90;;;18.65;;
32864;SDS011;19219;44.500;11.188;2023-03-23T15:35:19;40.28;;;19.80;;
32864;SDS011;19219;44.500;11.188;2023-03-23T15:37:48;42.88;;;19.60;;
32864;SDS011;19219;44.500;11.188;2023-03-23T15:40:20;40.53;;;20.92;;
32864;SDS011;19219;44.500;11.188;2023-03-23T15:42:47;44.58;;;19.77;;
32864;SDS011;19219;44.500;11.188;2023-03-23T15:47:47;39.88;;;17.23;;
32864;SDS011;19219;44.500;11.188;2023-03-23T15:50:32;45.72;;;18.35;;
32864;SDS011;19219;44.500;11.188;2023-03-23T15:52:58;31.80;;;16.33;;
32864;SDS011;19219;44.500;11.188;2023-03-23T15:55:27;36.15;;;17.60;;
32864;SDS011;19219;44.500;11.188;2023-03-23T15:57:55;46.25;;;18.55;;
32864;SDS011;19219;44.500;11.188;2023-03-23T16:00:23;34.08;;;17.30;;
32864;SDS011;19219;44.500;11.188;2023-03-23T16:02:56;38.30;;;18.60;;
32864;SDS011;19219;44.500;11.188;2023-03-23T16:05:26;40.13;;;18.45;;
32864;SDS011;19219;44.500;11.188;2023-03-23T16:07:52;40.72;;;18.33;;
32864;SDS011;19219;44.500;11.188;2023-03-23T16:10:21;37.20;;;18.52;;
32864;SDS011;19219;44.500;11.188;2023-03-23T16:12:48;42.22;;;18.67;;
32864;SDS011;19219;44.500;11.188;2023-03-23T16:15:14;41.90;;;18.80;;
32864;SDS011;19219;44.500;11.188;2023-03-23T16:17:40;45.50;;;18.75;;
32864;SDS011;19219;44.500;11.188;2023-03-23T16:20:14;41.22;;;17.83;;
32864;SDS011;19219;44.500;11.188;2023-03-23T16:22:42;30.15;;;15.85;;
32864;SDS011;19219;44.500;11.188;2023-03-23T16:25:07;38.65;;;17.38;;
32864;SDS011;19219;44.500;11.188;2023-03-23T16:27:34;41.92;;;17.75;;
32864;SDS011;19219;44.500;11.188;2023-03-23T16:30:00;46.40;;;19.15;;
32864;SDS011;19219;44.500;11.188;2023-03-23T16:32:27;34.90;;;16.05;;
32864;SDS011;19219;44.500;11.188;2023-03-23T16:34:53;32.65;;;16.90;;
32864;SDS011;19219;44.500;11.188;2023-03-23T16:37:19;93.07;;;50.58;;
32864;SDS011;19219;44.500;11.188;2023-03-23T16:39:45;41.72;;;20.27;;
32864;SDS011;19219;44.500;11.188;2023-03-23T16:42:11;43.00;;;18.15;;